This is the latest recevied weather packets stored in our database for station/object Seibranz. If no packets are shown the sender has not sent any weather packets the latest 10 day(s).
| Time | Temp. | Humidity | Pressure | Rain* | Wind** | Luminosity | Snow |
|---|---|---|---|---|---|---|---|
| 1777663929 | 12.22° C | 52% | 1023.4 hPa | 0 mm | - | - | - |
| 1777662130 | 12.22° C | 53% | 1023.5 hPa | 0 mm | - | - | - |
| 1777660330 | 13.89° C | 48% | 1023.4 hPa | 0 mm | - | - | - |
| 1777658531 | 15.56° C | 44% | 1023.1 hPa | 0 mm | - | - | - |
| 1777656731 | 16.67° C | 41% | 1023.2 hPa | 0 mm | - | - | - |
| 1777654930 | 17.78° C | 37% | 1023.2 hPa | 0 mm | - | - | - |
| 1777653130 | 18.89° C | 34% | 1023.3 hPa | 0 mm | - | - | - |
| 1777651330 | 19.44° C | 34% | 1023.5 hPa | 0 mm | - | - | - |
| 1777649530 | 19.44° C | 32% | 1023.7 hPa | 0 mm | - | - | - |
| 1777647730 | 19.44° C | 34% | 1023.7 hPa | 0 mm | - | - | - |
| 1777645930 | 19.44° C | 34% | 1023.9 hPa | 0 mm | - | - | - |
| 1777644130 | 19.44° C | 32% | 1024.1 hPa | 0 mm | - | - | - |
| 1777642330 | 18.89° C | 29% | 1024.4 hPa | 0 mm | - | - | - |
| 1777640531 | 18.89° C | 33% | 1024.7 hPa | 0 mm | - | - | - |
| 1777638736 | 17.78° C | 32% | 1025.1 hPa | 0 mm | - | - | - |
| 1777636931 | 17.78° C | 32% | 1025.1 hPa | 0 mm | - | - | - |
| 1777635130 | 16.67° C | 37% | 1025.5 hPa | 0 mm | - | - | - |
| 1777633331 | 16.67° C | 37% | 1025.7 hPa | 0 mm | - | - | - |
| 1777631531 | 15° C | 35% | 1026 hPa | 0 mm | - | - | - |
| 1777629731 | 13.89° C | 42% | 1026.1 hPa | 0 mm | - | - | - |
| 1777627930 | 12.78° C | 44% | 1026.2 hPa | 0 mm | - | - | - |
| 1777626132 | 12.22° C | 48% | 1026.2 hPa | 0 mm | - | - | - |
| 1777624331 | 11.67° C | 44% | 1026.1 hPa | 0 mm | - | - | - |
| 1777622532 | 10.56° C | 46% | 1026 hPa | 0 mm | - | - | - |
| 1777620733 | 9.44° C | 49% | 1026.1 hPa | 0 mm | - | - | - |
* Rain since midnight (hover to see other rain measurements)
** Current wind speed in m/s (hover to see current wind gust speed)